Timeline UpdatesTrip UpdatesNews PostsPvt PostsTravel TipsAdmin PostsConv PostsFollowed PostsChat RequestsBlog PostsPNR Posts

Disclaimer
Search
 
 
Sat Apr 19, 2014 21:19:48 ISTHomeTrainsΣChainsAtlasPNRForumGalleryNewsFAQTripsMembersLoginFeedback
No Recent News for this Train
Other Trains in the News **new
Latest...
Will remain cancelled between Bhiwani and Bhatinda on 28/01/2013 due to work of Road Under Bridge(RUB), only run between Rewari and Bhiwani. ********************************************* Cancelled on 26th March.
Sun Jan 27, 2013 (08:04PM)
⇐ Return Journey: Train# 54781

54782/Rewari Bhatinda Passenger (UnReserved)

Sep 27 2013 (10:29AM)
Change Departure Station:
Change Arrival Station:
Post a Train Travel TipPost a Train Travel Tip **new
Post a Comment/Question/Picture/VideoPost a Comment/Question/Picture/Video
Pantry/Catering
???
RSA - Rake Sharing
Rake/Coach Composition
Loco
News    PNR    Forum    Time-Table    Availability    Fare Chart    Map    Arr/Dep History    Trips    Gallery    ΣChains    X/O    Timeline    
Travel Time: 1h 30m    5 halts    Distance: 34 km    Avg Speed: 22 km/hr
Type: Passenger
Zone: NWR/North Western
Departs @ 15:25 (Avg 18m late)
Platform# ???
SMTWTFS
Ratangarh Kanakwal/RKK 
Arrives @ 16:55 (Avg 3m late)
Platform# ???
SMTWTFS
Bathinda Junction/BTI 

5 halts. 5 intermediate Stations between Ratangarh Kanakwal and Bathinda Junction

Show ALL intermediate Stations  Show Old Time-Table

#CodeStation NameX/OArrivesAvgDepartsAvgHaltPFDay#KmSpeedElevZoneAddress
1RERewari Junction (8)  -09:10+0--1-266.442245mNWRRewari, Haryana
2KGBSKishangarh Balawas (1)  09:22+509:23+71m11-258.061240mNWRKishengarh, Haryana
3JTSJatusana (1)  09:32+709:33+81m11-248.943243mNWRNanagal Pathani Rd, Haryana
4NLQNangal Pathani Halt (1)  09:39+909:40+91m11-244.660231mNWRNangal Pathani, Haryana
5KSIKosli (1)  09:46+909:48+92m11-238.543236mNWRTumna Rd, Haryana
6SDRASudharana (1)  09:56+1009:57+101m11-232.860230mNWRSudharana, Haryana
7JRLJharili (1)  10:05+1210:07+122m11-224.746234mNWRJhajjar, Haryana
8PUWPatuwas Mehrana (1)X  10:16+1210:17+121m11-217.863226mNWRMehrana, Haryana
9CKDCharkhi Dadri (1)  10:24+1210:26+152m11-210.444217mNWRDist. Bhiwani, Haryana
10FGHFatehgarh Haryana (1)  10:35+1410:36+141m11-203.857217mNWRFatehgarh, Haryana
11MHUManheru (1)  10:43+1410:45+142m11-197.252216mNWRBhiwani, Haryana
12DZLDhana Ladanpur (1)  10:54+810:55+81m11-189.423219mNWRDhana Ladanpur, Haryana
13BNWBhiwani Junction (3)X  11:10+811:15+145m--1-183.595216mNWRBhiwani, Haryana
14SUISui  11:23+1611:24+161m--1-170.839216mNWRBhiwani, Haryana
15BWKBawani Khera  11:32+1611:34+162m--1-165.660215mNWRBawani Khera, Haryana
16JKZJitakheri  11:43+1711:45+182m--1-156.642217mNWRBhiwani, Haryana
17AUNAurang Nagar  11:51+2011:52+201m--1-152.449216mNWRAurang Nagar, Haryana
18HNSHansi (1)  11:59+2012:01+202m11-146.651217mNWRHissar, Haryana
19MAYRMayar  12:11+2112:12+211m--1-138.250216mNWRMayar, Haryana
20STDSatrod  12:17+2112:19+212m--1-134.039215mNWRHisar, Haryana
21HSRHisar Junction (6)  12:35+1912:40+225m--1-123.566215mNWRHisar, Haryana
22NKNNyoli Kalan  12:49+2312:50+231m--1-113.753213mNWRNyoli Kalan, Haryana
23JKHIJakhod KheraX  12:57+2312:58+251m--1-107.570211mNWRJakhodlkhera, Haryana
24ADRMandi Adampur  13:09+2713:11+272m--1-94.859210mNWRHisar, Haryana
25KBKNKhabra Kalan  13:22+2713:23+271m--1-84.065216mNWRKhabra Kalan, Haryana
26BHTBhattu  13:29+2713:31+272m--1-77.531212mNWRBhattu Kalan, Haryana
27MHULMehuwala Halt  13:38+2813:39+281m--1-73.967210mNWRMehuwala Halt, Haryana
28DINGDing  13:46+2813:48+272m--1-66.140206mNWRSirsa, Haryana
29JOKJodhka  13:56+2613:57+261m--1-60.843205mNWRSirsa, Haryana
30SHNSuchan Kotli  14:03+2614:04+271m--1-56.575205mNWRSuchan, Haryana
31BJKNBajekan  14:12+1514:14+152m--1-46.413203mNWRBajekan, Haryana
32SSASirsaX  14:35+1614:40+175m--1-41.884203mNWRSirsa, Haryana
33BGDBara Gudah  14:53+1814:55+182m--1-23.553204mNWRBara Gudha, Haryana
34SCVSukhchain  15:04+1815:05+181m--1-15.655206mNWRSukhchain, Haryana
35KNLKalanwali  15:13+1815:15+182m--1-8.261206mNWRKalanwali, Haryana
36RKK»Ratangarh Kanakwal»  15:23+1715:25+182m--10.044205mNWRRatangarh Kanakwal, Punjab
37RMNRaman  15:33+1815:35+182m--15.939204mNWRRama Mandi, Punjab
38BNLSBangi Nihalsingh  15:43+1815:44+181m--111.143207mNWRBangi Nihalsingh, Punjab
39MKBHManwala Kot Bak  15:49+1715:50+171m--114.637208mNWRManwala Kot Bak, Punjab
40SGAShergarh  15:55+1715:56+181m--117.717205mNWRBathinda, Punjab
41GHBGahri Bhagi  16:03+216:04+21m--119.717205mNWRGahri Bhagi, Punjab
42BTI•Bathinda Junction (6)•  16:55+3---133.7-208mNRBathinda, Punjab
Scroll to Top
Scroll to Bottom